sensor_id;sensor_type;location;lat;lon;timestamp;P1;durP1;ratioP1;P2;durP2;ratioP2
79009;SDS011;73031;44.726;37.760;2023-11-19T00:00:49;6.40;;;3.42;;
79009;SDS011;73031;44.726;37.760;2023-11-19T00:01:51;5.95;;;3.40;;
79009;SDS011;73031;44.726;37.760;2023-11-19T00:02:52;6.07;;;2.95;;
79009;SDS011;73031;44.726;37.760;2023-11-19T00:03:53;5.50;;;3.05;;
79009;SDS011;73031;44.726;37.760;2023-11-19T00:04:54;5.13;;;2.67;;
79009;SDS011;73031;44.726;37.760;2023-11-19T00:05:55;6.13;;;3.20;;
79009;SDS011;73031;44.726;37.760;2023-11-19T00:06:56;5.13;;;2.80;;
79009;SDS011;73031;44.726;37.760;2023-11-19T00:08:03;5.93;;;2.90;;
79009;SDS011;73031;44.726;37.760;2023-11-19T00:09:08;5.93;;;2.90;;
79009;SDS011;73031;44.726;37.760;2023-11-19T00:11:11;5.68;;;2.80;;
79009;SDS011;73031;44.726;37.760;2023-11-19T00:12:15;4.80;;;2.30;;
79009;SDS011;73031;44.726;37.760;2023-11-19T00:13:16;5.53;;;2.45;;
79009;SDS011;73031;44.726;37.760;2023-11-19T00:14:18;5.18;;;2.72;;
79009;SDS011;73031;44.726;37.760;2023-11-19T00:15:19;5.53;;;2.50;;
79009;SDS011;73031;44.726;37.760;2023-11-19T00:16:20;4.57;;;2.58;;
79009;SDS011;73031;44.726;37.760;2023-11-19T00:17:21;5.05;;;2.58;;
79009;SDS011;73031;44.726;37.760;2023-11-19T00:18:22;5.90;;;2.38;;
79009;SDS011;73031;44.726;37.760;2023-11-19T00:19:23;5.85;;;2.80;;
79009;SDS011;73031;44.726;37.760;2023-11-19T00:20:24;5.80;;;3.08;;
79009;SDS011;73031;44.726;37.760;2023-11-19T00:21:25;5.93;;;2.90;;
79009;SDS011;73031;44.726;37.760;2023-11-19T00:22:29;5.95;;;3.13;;
79009;SDS011;73031;44.726;37.760;2023-11-19T00:23:30;6.90;;;2.85;;
79009;SDS011;73031;44.726;37.760;2023-11-19T00:24:31;6.18;;;2.80;;
79009;SDS011;73031;44.726;37.760;2023-11-19T00:25:32;5.28;;;2.70;;
79009;SDS011;73031;44.726;37.760;2023-11-19T00:26:33;6.05;;;2.75;;
79009;SDS011;73031;44.726;37.760;2023-11-19T00:27:34;5.68;;;2.97;;
79009;SDS011;73031;44.726;37.760;2023-11-19T00:28:36;5.18;;;2.90;;
79009;SDS011;73031;44.726;37.760;2023-11-19T00:29:39;6.50;;;2.70;;
79009;SDS011;73031;44.726;37.760;2023-11-19T00:30:40;5.20;;;2.70;;
79009;SDS011;73031;44.726;37.760;2023-11-19T00:31:41;6.15;;;2.75;;
79009;SDS011;73031;44.726;37.760;2023-11-19T00:32:42;4.80;;;2.60;;
79009;SDS011;73031;44.726;37.760;2023-11-19T00:33:44;5.18;;;2.90;;
79009;SDS011;73031;44.726;37.760;2023-11-19T00:34:46;7.40;;;2.25;;
79009;SDS011;73031;44.726;37.760;2023-11-19T00:35:48;4.72;;;2.63;;
79009;SDS011;73031;44.726;37.760;2023-11-19T00:36:49;4.40;;;2.42;;
79009;SDS011;73031;44.726;37.760;2023-11-19T00:37:50;5.00;;;2.55;;
79009;SDS011;73031;44.726;37.760;2023-11-19T00:38:51;5.85;;;2.42;;
79009;SDS011;73031;44.726;37.760;2023-11-19T00:39:55;5.50;;;2.65;;
79009;SDS011;73031;44.726;37.760;2023-11-19T00:40:56;5.13;;;2.72;;
79009;SDS011;73031;44.726;37.760;2023-11-19T00:41:57;4.88;;;2.53;;
79009;SDS011;73031;44.726;37.760;2023-11-19T00:42:58;5.38;;;2.53;;
79009;SDS011;73031;44.726;37.760;2023-11-19T00:43:59;4.88;;;2.67;;
79009;SDS011;73031;44.726;37.760;2023-11-19T00:45:00;4.80;;;2.50;;
79009;SDS011;73031;44.726;37.760;2023-11-19T00:46:02;5.30;;;2.60;;
79009;SDS011;73031;44.726;37.760;2023-11-19T00:47:03;5.38;;;2.22;;
79009;SDS011;73031;44.726;37.760;2023-11-19T00:48:05;4.38;;;2.13;;
79009;SDS011;73031;44.726;37.760;2023-11-19T00:49:07;4.70;;;2.40;;
79009;SDS011;73031;44.726;37.760;2023-11-19T00:50:08;4.65;;;2.20;;
79009;SDS011;73031;44.726;37.760;2023-11-19T00:51:13;4.90;;;2.25;;
79009;SDS011;73031;44.726;37.760;2023-11-19T00:52:15;4.47;;;2.28;;
79009;SDS011;73031;44.726;37.760;2023-11-19T00:53:16;4.25;;;2.15;;
79009;SDS011;73031;44.726;37.760;2023-11-19T00:54:17;5.55;;;2.80;;
79009;SDS011;73031;44.726;37.760;2023-11-19T00:55:18;4.78;;;2.05;;
79009;SDS011;73031;44.726;37.760;2023-11-19T00:56:19;5.10;;;2.22;;
79009;SDS011;73031;44.726;37.760;2023-11-19T00:57:20;6.43;;;2.60;;
79009;SDS011;73031;44.726;37.760;2023-11-19T00:58:21;5.80;;;2.80;;
79009;SDS011;73031;44.726;37.760;2023-11-19T00:59:22;5.25;;;2.78;;
79009;SDS011;73031;44.726;37.760;2023-11-19T01:00:23;4.95;;;2.60;;
79009;SDS011;73031;44.726;37.760;2023-11-19T01:01:27;4.88;;;2.40;;
79009;SDS011;73031;44.726;37.760;2023-11-19T01:02:28;4.85;;;2.30;;
79009;SDS011;73031;44.726;37.760;2023-11-19T01:03:29;4.90;;;2.55;;
79009;SDS011;73031;44.726;37.760;2023-11-19T01:04:33;4.32;;;2.20;;
79009;SDS011;73031;44.726;37.760;2023-11-19T01:05:38;5.97;;;2.50;;
79009;SDS011;73031;44.726;37.760;2023-11-19T01:06:40;4.95;;;2.70;;
79009;SDS011;73031;44.726;37.760;2023-11-19T01:07:42;5.28;;;2.20;;
79009;SDS011;73031;44.726;37.760;2023-11-19T01:08:43;4.82;;;2.25;;
79009;SDS011;73031;44.726;37.760;2023-11-19T01:09:45;4.53;;;2.40;;
79009;SDS011;73031;44.726;37.760;2023-11-19T01:10:46;5.13;;;2.28;;
79009;SDS011;73031;44.726;37.760;2023-11-19T01:11:48;4.85;;;2.20;;
79009;SDS011;73031;44.726;37.760;2023-11-19T01:12:49;5.50;;;2.55;;
79009;SDS011;73031;44.726;37.760;2023-11-19T01:13:50;4.70;;;2.30;;
79009;SDS011;73031;44.726;37.760;2023-11-19T01:14:52;5.20;;;2.55;;
79009;SDS011;73031;44.726;37.760;2023-11-19T01:15:53;4.95;;;2.10;;
79009;SDS011;73031;44.726;37.760;2023-11-19T01:16:56;4.53;;;2.20;;
79009;SDS011;73031;44.726;37.760;2023-11-19T01:17:58;4.75;;;2.35;;
79009;SDS011;73031;44.726;37.760;2023-11-19T01:18:59;6.38;;;2.60;;
79009;SDS011;73031;44.726;37.760;2023-11-19T01:20:04;5.00;;;2.35;;
79009;SDS011;73031;44.726;37.760;2023-11-19T01:21:09;5.22;;;2.78;;
79009;SDS011;73031;44.726;37.760;2023-11-19T01:22:10;4.57;;;2.22;;
79009;SDS011;73031;44.726;37.760;2023-11-19T01:23:11;4.55;;;2.47;;
79009;SDS011;73031;44.726;37.760;2023-11-19T01:24:12;5.20;;;2.75;;
79009;SDS011;73031;44.726;37.760;2023-11-19T01:25:14;4.80;;;2.30;;
79009;SDS011;73031;44.726;37.760;2023-11-19T01:26:15;5.35;;;2.55;;
79009;SDS011;73031;44.726;37.760;2023-11-19T01:27:17;5.57;;;2.60;;
79009;SDS011;73031;44.726;37.760;2023-11-19T01:28:18;6.18;;;2.60;;
79009;SDS011;73031;44.726;37.760;2023-11-19T01:29:19;4.63;;;2.38;;
79009;SDS011;73031;44.726;37.760;2023-11-19T01:30:20;5.40;;;2.97;;
79009;SDS011;73031;44.726;37.760;2023-11-19T01:31:21;4.85;;;2.63;;
79009;SDS011;73031;44.726;37.760;2023-11-19T01:32:22;5.70;;;2.25;;
79009;SDS011;73031;44.726;37.760;2023-11-19T01:33:24;5.28;;;2.58;;
79009;SDS011;73031;44.726;37.760;2023-11-19T01:34:25;5.25;;;2.70;;
79009;SDS011;73031;44.726;37.760;2023-11-19T01:35:26;5.47;;;2.60;;
79009;SDS011;73031;44.726;37.760;2023-11-19T01:36:28;4.53;;;2.28;;
79009;SDS011;73031;44.726;37.760;2023-11-19T01:37:29;5.70;;;2.70;;
79009;SDS011;73031;44.726;37.760;2023-11-19T01:38:30;5.28;;;2.88;;
79009;SDS011;73031;44.726;37.760;2023-11-19T01:39:33;4.75;;;2.55;;
79009;SDS011;73031;44.726;37.760;2023-11-19T01:40:34;6.05;;;2.70;;
79009;SDS011;73031;44.726;37.760;2023-11-19T01:41:38;8.02;;;2.75;;
79009;SDS011;73031;44.726;37.760;2023-11-19T01:42:40;5.55;;;2.80;;
79009;SDS011;73031;44.726;37.760;2023-11-19T01:43:41;5.50;;;2.70;;
79009;SDS011;73031;44.726;37.760;2023-11-19T01:44:42;5.38;;;2.92;;
79009;SDS011;73031;44.726;37.760;2023-11-19T01:45:43;5.85;;;2.58;;
79009;SDS011;73031;44.726;37.760;2023-11-19T01:46:45;7.30;;;2.95;;
79009;SDS011;73031;44.726;37.760;2023-11-19T01:47:50;6.82;;;3.13;;
79009;SDS011;73031;44.726;37.760;2023-11-19T01:48:52;7.45;;;3.38;;
79009;SDS011;73031;44.726;37.760;2023-11-19T01:49:54;6.10;;;2.90;;
79009;SDS011;73031;44.726;37.760;2023-11-19T01:50:57;5.72;;;3.08;;
79009;SDS011;73031;44.726;37.760;2023-11-19T01:51:58;6.30;;;2.80;;
79009;SDS011;73031;44.726;37.760;2023-11-19T01:53:00;6.07;;;3.30;;
79009;SDS011;73031;44.726;37.760;2023-11-19T01:54:01;5.32;;;2.83;;
79009;SDS011;73031;44.726;37.760;2023-11-19T01:55:03;6.07;;;2.90;;
79009;SDS011;73031;44.726;37.760;2023-11-19T01:56:06;5.25;;;2.85;;
79009;SDS011;73031;44.726;37.760;2023-11-19T01:57:09;7.30;;;2.80;;
79009;SDS011;73031;44.726;37.760;2023-11-19T01:58:11;5.97;;;3.40;;
79009;SDS011;73031;44.726;37.760;2023-11-19T01:59:13;6.60;;;3.03;;
79009;SDS011;73031;44.726;37.760;2023-11-19T02:00:15;5.63;;;3.05;;
79009;SDS011;73031;44.726;37.760;2023-11-19T02:01:17;5.20;;;3.10;;
79009;SDS011;73031;44.726;37.760;2023-11-19T02:02:18;5.38;;;3.00;;
79009;SDS011;73031;44.726;37.760;2023-11-19T02:03:23;6.00;;;3.03;;
79009;SDS011;73031;44.726;37.760;2023-11-19T02:04:27;6.85;;;3.25;;
79009;SDS011;73031;44.726;37.760;2023-11-19T02:05:28;5.60;;;2.63;;
79009;SDS011;73031;44.726;37.760;2023-11-19T02:06:29;5.75;;;2.92;;
79009;SDS011;73031;44.726;37.760;2023-11-19T02:07:33;5.88;;;2.95;;
79009;SDS011;73031;44.726;37.760;2023-11-19T02:08:35;5.72;;;3.10;;
79009;SDS011;73031;44.726;37.760;2023-11-19T02:09:36;6.20;;;3.10;;
79009;SDS011;73031;44.726;37.760;2023-11-19T02:10:38;7.25;;;3.50;;
79009;SDS011;73031;44.726;37.760;2023-11-19T02:11:40;6.82;;;3.20;;
79009;SDS011;73031;44.726;37.760;2023-11-19T02:12:41;6.20;;;3.30;;
79009;SDS011;73031;44.726;37.760;2023-11-19T02:13:46;6.70;;;3.45;;
79009;SDS011;73031;44.726;37.760;2023-11-19T02:14:47;5.95;;;3.10;;
79009;SDS011;73031;44.726;37.760;2023-11-19T02:15:49;6.57;;;3.13;;
79009;SDS011;73031;44.726;37.760;2023-11-19T02:16:50;6.72;;;2.97;;
79009;SDS011;73031;44.726;37.760;2023-11-19T02:17:51;6.80;;;3.40;;
79009;SDS011;73031;44.726;37.760;2023-11-19T02:18:52;7.30;;;3.70;;
79009;SDS011;73031;44.726;37.760;2023-11-19T02:19:54;6.55;;;3.30;;
79009;SDS011;73031;44.726;37.760;2023-11-19T02:20:55;7.32;;;3.03;;
79009;SDS011;73031;44.726;37.760;2023-11-19T02:21:58;5.80;;;3.13;;
79009;SDS011;73031;44.726;37.760;2023-11-19T02:22:59;5.40;;;2.75;;
79009;SDS011;73031;44.726;37.760;2023-11-19T02:24:02;6.10;;;3.22;;
79009;SDS011;73031;44.726;37.760;2023-11-19T02:25:07;7.32;;;3.00;;
79009;SDS011;73031;44.726;37.760;2023-11-19T02:27:25;5.35;;;3.08;;
79009;SDS011;73031;44.726;37.760;2023-11-19T02:28:45;5.38;;;2.90;;
79009;SDS011;73031;44.726;37.760;2023-11-19T02:29:47;5.03;;;2.50;;
79009;SDS011;73031;44.726;37.760;2023-11-19T02:30:48;6.07;;;3.30;;
79009;SDS011;73031;44.726;37.760;2023-11-19T02:31:49;5.57;;;2.97;;
79009;SDS011;73031;44.726;37.760;2023-11-19T02:32:50;5.30;;;3.05;;
79009;SDS011;73031;44.726;37.760;2023-11-19T02:33:52;5.18;;;3.10;;
79009;SDS011;73031;44.726;37.760;2023-11-19T02:34:53;6.95;;;3.30;;
79009;SDS011;73031;44.726;37.760;2023-11-19T02:35:54;6.35;;;3.15;;
79009;SDS011;73031;44.726;37.760;2023-11-19T02:36:56;6.00;;;3.15;;
79009;SDS011;73031;44.726;37.760;2023-11-19T02:37:58;6.80;;;3.13;;
79009;SDS011;73031;44.726;37.760;2023-11-19T02:39:04;5.90;;;3.22;;
79009;SDS011;73031;44.726;37.760;2023-11-19T02:40:11;5.47;;;2.95;;
79009;SDS011;73031;44.726;37.760;2023-11-19T02:41:14;5.72;;;3.20;;
79009;SDS011;73031;44.726;37.760;2023-11-19T02:42:15;6.20;;;2.83;;
79009;SDS011;73031;44.726;37.760;2023-11-19T02:43:16;5.97;;;2.72;;
79009;SDS011;73031;44.726;37.760;2023-11-19T02:44:18;7.03;;;3.20;;
79009;SDS011;73031;44.726;37.760;2023-11-19T02:45:19;5.93;;;3.10;;
79009;SDS011;73031;44.726;37.760;2023-11-19T02:46:22;6.07;;;3.13;;
79009;SDS011;73031;44.726;37.760;2023-11-19T02:47:24;6.55;;;3.00;;
79009;SDS011;73031;44.726;37.760;2023-11-19T02:48:25;5.82;;;2.95;;
79009;SDS011;73031;44.726;37.760;2023-11-19T02:49:26;5.72;;;2.95;;
79009;SDS011;73031;44.726;37.760;2023-11-19T02:50:27;5.75;;;2.83;;
79009;SDS011;73031;44.726;37.760;2023-11-19T02:51:28;6.75;;;2.67;;
79009;SDS011;73031;44.726;37.760;2023-11-19T02:52:30;6.30;;;3.20;;
79009;SDS011;73031;44.726;37.760;2023-11-19T02:53:35;4.95;;;2.80;;
79009;SDS011;73031;44.726;37.760;2023-11-19T02:54:40;5.78;;;2.72;;
79009;SDS011;73031;44.726;37.760;2023-11-19T02:55:41;5.22;;;2.95;;
79009;SDS011;73031;44.726;37.760;2023-11-19T02:56:48;5.45;;;2.63;;
79009;SDS011;73031;44.726;37.760;2023-11-19T02:57:55;7.00;;;3.22;;
79009;SDS011;73031;44.726;37.760;2023-11-19T02:58:59;5.60;;;3.08;;
79009;SDS011;73031;44.726;37.760;2023-11-19T03:00:04;5.78;;;2.85;;
79009;SDS011;73031;44.726;37.760;2023-11-19T03:01:12;4.90;;;2.80;;
79009;SDS011;73031;44.726;37.760;2023-11-19T03:02:23;5.75;;;3.08;;
79009;SDS011;73031;44.726;37.760;2023-11-19T03:03:34;6.40;;;3.30;;
79009;SDS011;73031;44.726;37.760;2023-11-19T03:04:39;6.13;;;3.15;;
79009;SDS011;73031;44.726;37.760;2023-11-19T03:05:40;5.53;;;2.95;;
79009;SDS011;73031;44.726;37.760;2023-11-19T03:06:41;5.72;;;3.03;;
79009;SDS011;73031;44.726;37.760;2023-11-19T03:07:42;7.32;;;3.30;;
79009;SDS011;73031;44.726;37.760;2023-11-19T03:08:44;5.68;;;2.72;;
79009;SDS011;73031;44.726;37.760;2023-11-19T03:09:45;6.30;;;3.72;;
79009;SDS011;73031;44.726;37.760;2023-11-19T03:10:46;6.05;;;3.22;;
79009;SDS011;73031;44.726;37.760;2023-11-19T03:11:47;5.85;;;2.90;;
79009;SDS011;73031;44.726;37.760;2023-11-19T03:12:48;5.70;;;3.10;;
79009;SDS011;73031;44.726;37.760;2023-11-19T03:13:50;5.63;;;3.17;;
79009;SDS011;73031;44.726;37.760;2023-11-19T03:14:51;5.18;;;2.53;;
79009;SDS011;73031;44.726;37.760;2023-11-19T03:15:52;6.30;;;3.13;;
79009;SDS011;73031;44.726;37.760;2023-11-19T03:16:54;6.32;;;3.45;;
79009;SDS011;73031;44.726;37.760;2023-11-19T03:17:55;5.75;;;3.10;;
79009;SDS011;73031;44.726;37.760;2023-11-19T03:18:56;5.60;;;3.10;;
79009;SDS011;73031;44.726;37.760;2023-11-19T03:19:57;6.72;;;2.92;;
79009;SDS011;73031;44.726;37.760;2023-11-19T03:20:58;4.47;;;2.38;;
79009;SDS011;73031;44.726;37.760;2023-11-19T03:22:00;7.43;;;3.33;;
79009;SDS011;73031;44.726;37.760;2023-11-19T03:23:02;6.40;;;3.42;;
79009;SDS011;73031;44.726;37.760;2023-11-19T03:24:03;6.85;;;3.33;;
79009;SDS011;73031;44.726;37.760;2023-11-19T03:25:04;5.32;;;3.03;;
79009;SDS011;73031;44.726;37.760;2023-11-19T03:26:10;6.80;;;3.28;;
79009;SDS011;73031;44.726;37.760;2023-11-19T03:27:11;5.97;;;3.45;;
79009;SDS011;73031;44.726;37.760;2023-11-19T03:28:12;7.07;;;3.40;;
79009;SDS011;73031;44.726;37.760;2023-11-19T03:29:13;7.20;;;4.00;;
79009;SDS011;73031;44.726;37.760;2023-11-19T03:30:14;6.22;;;3.83;;
79009;SDS011;73031;44.726;37.760;2023-11-19T03:31:15;5.72;;;3.08;;
79009;SDS011;73031;44.726;37.760;2023-11-19T03:32:17;7.70;;;3.75;;
79009;SDS011;73031;44.726;37.760;2023-11-19T03:33:18;6.43;;;3.58;;
79009;SDS011;73031;44.726;37.760;2023-11-19T03:34:19;6.07;;;3.42;;
79009;SDS011;73031;44.726;37.760;2023-11-19T03:35:20;5.47;;;3.15;;
79009;SDS011;73031;44.726;37.760;2023-11-19T03:36:21;5.57;;;3.00;;
79009;SDS011;73031;44.726;37.760;2023-11-19T03:37:23;5.70;;;3.20;;
79009;SDS011;73031;44.726;37.760;2023-11-19T03:38:24;6.07;;;3.35;;
79009;SDS011;73031;44.726;37.760;2023-11-19T03:39:25;5.88;;;3.47;;
79009;SDS011;73031;44.726;37.760;2023-11-19T03:40:27;7.75;;;3.47;;
79009;SDS011;73031;44.726;37.760;2023-11-19T03:41:29;5.95;;;3.13;;
79009;SDS011;73031;44.726;37.760;2023-11-19T03:42:30;5.68;;;2.92;;
79009;SDS011;73031;44.726;37.760;2023-11-19T03:43:31;6.00;;;3.35;;
79009;SDS011;73031;44.726;37.760;2023-11-19T03:44:32;6.45;;;3.20;;
79009;SDS011;73031;44.726;37.760;2023-11-19T03:45:33;5.40;;;2.92;;
79009;SDS011;73031;44.726;37.760;2023-11-19T03:46:34;7.50;;;3.30;;
79009;SDS011;73031;44.726;37.760;2023-11-19T03:47:36;6.00;;;3.47;;
79009;SDS011;73031;44.726;37.760;2023-11-19T03:48:37;7.10;;;3.60;;
79009;SDS011;73031;44.726;37.760;2023-11-19T03:49:39;6.13;;;3.45;;
79009;SDS011;73031;44.726;37.760;2023-11-19T03:50:40;5.72;;;2.88;;
79009;SDS011;73031;44.726;37.760;2023-11-19T03:51:41;6.43;;;3.50;;
79009;SDS011;73031;44.726;37.760;2023-11-19T03:52:42;6.78;;;3.55;;
79009;SDS011;73031;44.726;37.760;2023-11-19T03:53:44;7.25;;;3.53;;
79009;SDS011;73031;44.726;37.760;2023-11-19T03:54:46;6.63;;;3.72;;
79009;SDS011;73031;44.726;37.760;2023-11-19T03:55:47;7.05;;;3.40;;
79009;SDS011;73031;44.726;37.760;2023-11-19T03:56:48;6.38;;;3.70;;
79009;SDS011;73031;44.726;37.760;2023-11-19T03:57:49;6.50;;;3.72;;
79009;SDS011;73031;44.726;37.760;2023-11-19T03:58:51;6.05;;;3.50;;
79009;SDS011;73031;44.726;37.760;2023-11-19T03:59:52;6.47;;;3.67;;
79009;SDS011;73031;44.726;37.760;2023-11-19T04:00:53;7.32;;;3.97;;
79009;SDS011;73031;44.726;37.760;2023-11-19T04:01:54;5.93;;;3.03;;
79009;SDS011;73031;44.726;37.760;2023-11-19T04:02:57;6.63;;;3.85;;
79009;SDS011;73031;44.726;37.760;2023-11-19T04:03:58;6.70;;;3.00;;
79009;SDS011;73031;44.726;37.760;2023-11-19T04:05:00;6.32;;;2.97;;
79009;SDS011;73031;44.726;37.760;2023-11-19T04:06:01;5.28;;;3.03;;
79009;SDS011;73031;44.726;37.760;2023-11-19T04:07:02;5.97;;;3.00;;
79009;SDS011;73031;44.726;37.760;2023-11-19T04:08:06;6.45;;;3.15;;
79009;SDS011;73031;44.726;37.760;2023-11-19T04:09:07;7.90;;;3.15;;
79009;SDS011;73031;44.726;37.760;2023-11-19T04:10:08;6.85;;;3.90;;
79009;SDS011;73031;44.726;37.760;2023-11-19T04:11:09;6.10;;;3.22;;
79009;SDS011;73031;44.726;37.760;2023-11-19T04:12:10;6.13;;;3.10;;
79009;SDS011;73031;44.726;37.760;2023-11-19T04:13:11;7.00;;;3.20;;
79009;SDS011;73031;44.726;37.760;2023-11-19T04:14:15;7.03;;;3.40;;
79009;SDS011;73031;44.726;37.760;2023-11-19T04:15:18;8.75;;;4.05;;
79009;SDS011;73031;44.726;37.760;2023-11-19T04:16:19;6.05;;;3.22;;
79009;SDS011;73031;44.726;37.760;2023-11-19T04:17:28;6.18;;;3.38;;
79009;SDS011;73031;44.726;37.760;2023-11-19T04:18:29;6.82;;;3.60;;
79009;SDS011;73031;44.726;37.760;2023-11-19T04:19:30;7.05;;;3.13;;
79009;SDS011;73031;44.726;37.760;2023-11-19T04:20:33;5.78;;;2.83;;
79009;SDS011;73031;44.726;37.760;2023-11-19T04:21:34;6.35;;;3.50;;
79009;SDS011;73031;44.726;37.760;2023-11-19T04:22:35;6.55;;;3.40;;
79009;SDS011;73031;44.726;37.760;2023-11-19T04:23:36;5.07;;;3.13;;
79009;SDS011;73031;44.726;37.760;2023-11-19T04:24:37;5.90;;;3.00;;
79009;SDS011;73031;44.726;37.760;2023-11-19T04:25:38;5.95;;;3.40;;
79009;SDS011;73031;44.726;37.760;2023-11-19T04:26:45;5.88;;;3.40;;
79009;SDS011;73031;44.726;37.760;2023-11-19T04:27:47;5.90;;;2.83;;
79009;SDS011;73031;44.726;37.760;2023-11-19T04:28:48;5.85;;;3.15;;
79009;SDS011;73031;44.726;37.760;2023-11-19T04:29:52;5.30;;;2.53;;
79009;SDS011;73031;44.726;37.760;2023-11-19T04:30:53;6.32;;;3.53;;
79009;SDS011;73031;44.726;37.760;2023-11-19T04:31:55;5.82;;;2.88;;
79009;SDS011;73031;44.726;37.760;2023-11-19T04:32:56;5.55;;;3.13;;
79009;SDS011;73031;44.726;37.760;2023-11-19T04:33:57;5.90;;;3.03;;
79009;SDS011;73031;44.726;37.760;2023-11-19T04:34:58;6.22;;;3.30;;
79009;SDS011;73031;44.726;37.760;2023-11-19T04:35:59;5.75;;;3.10;;
79009;SDS011;73031;44.726;37.760;2023-11-19T04:37:00;6.40;;;3.22;;
79009;SDS011;73031;44.726;37.760;2023-11-19T04:39:06;6.30;;;2.95;;
79009;SDS011;73031;44.726;37.760;2023-11-19T04:40:13;6.50;;;3.50;;
79009;SDS011;73031;44.726;37.760;2023-11-19T04:41:14;5.75;;;3.33;;
79009;SDS011;73031;44.726;37.760;2023-11-19T04:42:15;6.68;;;3.38;;
79009;SDS011;73031;44.726;37.760;2023-11-19T04:43:17;6.20;;;3.47;;
79009;SDS011;73031;44.726;37.760;2023-11-19T04:44:20;5.72;;;3.00;;
79009;SDS011;73031;44.726;37.760;2023-11-19T04:45:21;6.50;;;3.35;;
79009;SDS011;73031;44.726;37.760;2023-11-19T04:46:22;6.15;;;3.30;;
79009;SDS011;73031;44.726;37.760;2023-11-19T04:47:24;5.70;;;2.75;;
79009;SDS011;73031;44.726;37.760;2023-11-19T04:48:25;6.93;;;3.55;;
79009;SDS011;73031;44.726;37.760;2023-11-19T04:49:26;6.60;;;3.47;;
79009;SDS011;73031;44.726;37.760;2023-11-19T04:50:27;6.68;;;3.70;;
79009;SDS011;73031;44.726;37.760;2023-11-19T04:51:28;6.22;;;3.30;;
79009;SDS011;73031;44.726;37.760;2023-11-19T04:52:34;6.70;;;3.28;;
79009;SDS011;73031;44.726;37.760;2023-11-19T04:53:35;5.72;;;2.90;;
79009;SDS011;73031;44.726;37.760;2023-11-19T04:54:37;5.68;;;3.45;;
79009;SDS011;73031;44.726;37.760;2023-11-19T04:55:42;6.20;;;3.33;;
79009;SDS011;73031;44.726;37.760;2023-11-19T04:56:45;6.50;;;3.65;;
79009;SDS011;73031;44.726;37.760;2023-11-19T04:57:47;6.25;;;3.33;;
79009;SDS011;73031;44.726;37.760;2023-11-19T04:58:48;5.93;;;3.55;;
79009;SDS011;73031;44.726;37.760;2023-11-19T04:59:49;9.30;;;3.67;;
79009;SDS011;73031;44.726;37.760;2023-11-19T05:00:50;8.23;;;3.72;;
79009;SDS011;73031;44.726;37.760;2023-11-19T05:01:51;6.15;;;2.85;;
79009;SDS011;73031;44.726;37.760;2023-11-19T05:02:52;9.75;;;2.95;;
79009;SDS011;73031;44.726;37.760;2023-11-19T05:03:53;6.20;;;3.20;;
79009;SDS011;73031;44.726;37.760;2023-11-19T05:04:54;5.90;;;3.50;;
79009;SDS011;73031;44.726;37.760;2023-11-19T05:05:55;5.78;;;3.13;;
79009;SDS011;73031;44.726;37.760;2023-11-19T05:06:56;6.25;;;2.90;;
79009;SDS011;73031;44.726;37.760;2023-11-19T05:07:58;6.38;;;3.38;;
79009;SDS011;73031;44.726;37.760;2023-11-19T05:08:59;6.82;;;3.42;;
79009;SDS011;73031;44.726;37.760;2023-11-19T05:10:08;6.57;;;3.20;;
79009;SDS011;73031;44.726;37.760;2023-11-19T05:11:09;6.28;;;3.30;;
79009;SDS011;73031;44.726;37.760;2023-11-19T05:12:12;5.70;;;2.78;;
79009;SDS011;73031;44.726;37.760;2023-11-19T05:13:13;6.38;;;3.30;;
79009;SDS011;73031;44.726;37.760;2023-11-19T05:14:15;5.78;;;2.65;;
79009;SDS011;73031;44.726;37.760;2023-11-19T05:15:17;5.15;;;2.58;;
79009;SDS011;73031;44.726;37.760;2023-11-19T05:16:18;5.63;;;2.63;;
79009;SDS011;73031;44.726;37.760;2023-11-19T05:17:19;6.13;;;3.20;;
79009;SDS011;73031;44.726;37.760;2023-11-19T05:18:20;6.60;;;3.13;;
79009;SDS011;73031;44.726;37.760;2023-11-19T05:19:22;6.60;;;3.10;;
79009;SDS011;73031;44.726;37.760;2023-11-19T05:20:23;7.03;;;3.55;;
79009;SDS011;73031;44.726;37.760;2023-11-19T05:21:24;5.78;;;2.83;;
79009;SDS011;73031;44.726;37.760;2023-11-19T05:22:25;6.15;;;2.90;;
79009;SDS011;73031;44.726;37.760;2023-11-19T05:23:26;6.43;;;3.22;;
79009;SDS011;73031;44.726;37.760;2023-11-19T05:24:27;6.10;;;3.38;;
79009;SDS011;73031;44.726;37.760;2023-11-19T05:25:28;7.93;;;3.38;;
79009;SDS011;73031;44.726;37.760;2023-11-19T05:26:30;6.70;;;3.53;;
79009;SDS011;73031;44.726;37.760;2023-11-19T05:27:31;5.85;;;2.70;;
79009;SDS011;73031;44.726;37.760;2023-11-19T05:28:32;6.50;;;3.03;;
79009;SDS011;73031;44.726;37.760;2023-11-19T05:29:33;5.70;;;3.35;;
79009;SDS011;73031;44.726;37.760;2023-11-19T05:30:34;6.45;;;3.28;;
79009;SDS011;73031;44.726;37.760;2023-11-19T05:31:35;6.38;;;3.22;;
79009;SDS011;73031;44.726;37.760;2023-11-19T05:32:36;6.85;;;3.53;;
79009;SDS011;73031;44.726;37.760;2023-11-19T05:33:37;6.38;;;3.65;;
79009;SDS011;73031;44.726;37.760;2023-11-19T05:34:38;6.75;;;3.90;;
79009;SDS011;73031;44.726;37.760;2023-11-19T05:35:39;6.90;;;3.70;;
79009;SDS011;73031;44.726;37.760;2023-11-19T05:36:40;6.30;;;3.30;;
79009;SDS011;73031;44.726;37.760;2023-11-19T05:37:41;6.70;;;3.63;;
79009;SDS011;73031;44.726;37.760;2023-11-19T05:38:42;6.72;;;3.45;;
79009;SDS011;73031;44.726;37.760;2023-11-19T05:39:45;6.75;;;3.55;;
79009;SDS011;73031;44.726;37.760;2023-11-19T05:40:46;5.88;;;3.50;;
79009;SDS011;73031;44.726;37.760;2023-11-19T05:41:48;7.50;;;3.80;;
79009;SDS011;73031;44.726;37.760;2023-11-19T05:42:49;6.10;;;3.10;;
79009;SDS011;73031;44.726;37.760;2023-11-19T05:43:51;6.38;;;3.17;;
79009;SDS011;73031;44.726;37.760;2023-11-19T05:44:52;6.70;;;3.63;;
79009;SDS011;73031;44.726;37.760;2023-11-19T05:45:53;6.03;;;3.45;;
79009;SDS011;73031;44.726;37.760;2023-11-19T05:46:55;6.47;;;3.33;;
79009;SDS011;73031;44.726;37.760;2023-11-19T05:47:56;6.78;;;3.50;;
79009;SDS011;73031;44.726;37.760;2023-11-19T05:48:57;7.05;;;3.10;;
79009;SDS011;73031;44.726;37.760;2023-11-19T05:49:58;7.25;;;3.88;;
79009;SDS011;73031;44.726;37.760;2023-11-19T05:51:00;5.75;;;3.05;;
79009;SDS011;73031;44.726;37.760;2023-11-19T05:52:01;7.10;;;3.45;;
79009;SDS011;73031;44.726;37.760;2023-11-19T05:53:04;8.95;;;3.75;;
79009;SDS011;73031;44.726;37.760;2023-11-19T05:54:11;7.10;;;3.25;;
79009;SDS011;73031;44.726;37.760;2023-11-19T05:55:12;8.00;;;3.22;;
79009;SDS011;73031;44.726;37.760;2023-11-19T05:56:14;6.28;;;3.35;;
79009;SDS011;73031;44.726;37.760;2023-11-19T05:57:16;7.10;;;3.10;;
79009;SDS011;73031;44.726;37.760;2023-11-19T05:58:24;7.47;;;3.40;;
79009;SDS011;73031;44.726;37.760;2023-11-19T05:59:26;6.38;;;3.20;;
79009;SDS011;73031;44.726;37.760;2023-11-19T06:00:28;6.80;;;3.17;;
79009;SDS011;73031;44.726;37.760;2023-11-19T06:01:29;6.72;;;3.00;;
79009;SDS011;73031;44.726;37.760;2023-11-19T06:02:30;8.02;;;3.10;;
79009;SDS011;73031;44.726;37.760;2023-11-19T06:03:33;6.47;;;3.35;;
79009;SDS011;73031;44.726;37.760;2023-11-19T06:04:35;5.93;;;3.10;;
79009;SDS011;73031;44.726;37.760;2023-11-19T06:05:36;5.88;;;2.90;;
79009;SDS011;73031;44.726;37.760;2023-11-19T06:06:38;5.72;;;3.10;;
79009;SDS011;73031;44.726;37.760;2023-11-19T06:07:40;6.20;;;2.85;;
79009;SDS011;73031;44.726;37.760;2023-11-19T06:08:42;6.53;;;3.47;;
79009;SDS011;73031;44.726;37.760;2023-11-19T06:09:43;6.10;;;2.90;;
79009;SDS011;73031;44.726;37.760;2023-11-19T06:10:44;6.10;;;3.42;;